createdAt,value
2022-08-10T00:01:22.363Z,78.06
2022-08-10T00:03:54.359Z,78.34
2022-08-10T00:06:26.425Z,78.00
2022-08-10T00:08:59.914Z,77.47
2022-08-10T00:11:31.934Z,77.73
2022-08-10T00:14:04.032Z,77.75
2022-08-10T00:16:36.030Z,77.33
2022-08-10T00:19:08.068Z,77.43
2022-08-10T00:21:42.341Z,77.51
2022-08-10T00:24:15.140Z,77.78
2022-08-10T00:27:52.115Z,77.79
2022-08-10T00:29:39.014Z,77.63
2022-08-10T00:32:10.988Z,77.12
2022-08-10T00:34:43.156Z,77.17
2022-08-10T00:37:17.389Z,76.70
2022-08-10T00:39:49.384Z,76.65
2022-08-10T00:42:21.391Z,76.54
2022-08-10T00:44:53.793Z,76.46
2022-08-10T00:47:36.765Z,76.04
2022-08-10T00:50:10.367Z,76.48
2022-08-10T00:52:42.338Z,75.92
2022-08-10T00:55:14.835Z,76.00
2022-08-10T00:57:55.247Z,76.35
2022-08-10T01:00:28.208Z,76.67
2022-08-10T01:03:00.363Z,76.69
2022-08-10T01:05:33.631Z,77.14
2022-08-10T01:08:32.377Z,77.05
2022-08-10T01:12:38.384Z,77.51
2022-08-10T01:14:36.385Z,77.13
2022-08-10T01:17:23.403Z,77.04
2022-08-10T01:20:34.895Z,77.69
2022-08-10T01:23:21.772Z,77.09
2022-08-10T01:26:43.247Z,77.21
2022-08-10T01:29:42.656Z,77.99
2022-08-10T01:32:22.395Z,78.18
2022-08-10T01:35:10.545Z,78.12
2022-08-10T01:38:16.790Z,77.90
2022-08-10T01:41:03.583Z,77.90
2022-08-10T01:43:41.876Z,77.75
2022-08-10T01:46:15.792Z,77.61
2022-08-10T01:48:55.195Z,77.96
2022-08-10T01:51:39.365Z,78.21
2022-08-10T01:54:20.058Z,79.12
2022-08-10T01:56:56.750Z,78.72
2022-08-10T01:59:34.766Z,78.67
2022-08-10T02:02:10.743Z,79.12
2022-08-10T02:04:48.078Z,79.04
2022-08-10T02:07:25.585Z,79.29
2022-08-10T02:10:04.529Z,79.24
2022-08-10T02:12:38.216Z,78.36
2022-08-10T02:15:22.153Z,79.03
2022-08-10T02:18:02.077Z,78.86
2022-08-10T02:20:45.981Z,78.38
2022-08-10T02:23:32.141Z,78.18
2022-08-10T02:26:07.189Z,78.07
2022-08-10T02:28:41.474Z,78.57
2022-08-10T02:31:23.012Z,79.14
2022-08-10T02:33:59.535Z,79.76
2022-08-10T02:36:34.541Z,80.14
2022-08-10T02:39:09.198Z,80.19
2022-08-10T02:45:14.851Z,80.26
2022-08-10T02:45:29.204Z,80.94
2022-08-10T02:48:12.674Z,81.56
2022-08-10T02:50:55.834Z,81.76
2022-08-10T02:53:54.934Z,81.73
2022-08-10T02:56:38.259Z,81.98
2022-08-10T02:59:11.251Z,82.72
2022-08-10T03:01:49.056Z,82.59
2022-08-10T03:04:55.345Z,82.29
2022-08-10T03:07:44.524Z,81.69
2022-08-10T03:10:21.984Z,82.21
2022-08-10T03:12:59.716Z,82.12
2022-08-10T03:15:34.978Z,82.24
2022-08-10T03:18:08.526Z,82.84
2022-08-10T03:20:43.126Z,82.84
2022-08-10T03:23:19.573Z,82.96
2022-08-10T03:25:56.765Z,82.91
2022-08-10T03:28:32.759Z,82.73
2022-08-10T03:31:04.791Z,82.68
2022-08-10T03:33:41.679Z,82.65
2022-08-10T03:36:40.397Z,82.39
2022-08-10T03:39:05.826Z,82.79
2022-08-10T03:41:53.568Z,82.90
2022-08-10T03:44:33.742Z,82.13
2022-08-10T03:47:16.506Z,82.66
2022-08-10T03:49:49.752Z,82.51
2022-08-10T03:52:22.077Z,82.17
2022-08-10T03:54:54.506Z,82.35
2022-08-10T03:57:30.081Z,82.66
2022-08-10T04:00:02.172Z,82.67
2022-08-10T04:02:44.653Z,82.19
2022-08-10T04:05:20.117Z,82.30
2022-08-10T04:07:52.128Z,81.76
2022-08-10T04:10:24.096Z,81.72
2022-08-10T04:12:56.392Z,81.43
2022-08-10T04:15:30.998Z,81.68
2022-08-10T04:18:06.274Z,81.42
2022-08-10T04:20:53.039Z,81.58
2022-08-10T04:23:29.585Z,81.11
2022-08-10T04:26:01.636Z,81.25
2022-08-10T04:28:33.851Z,81.25
2022-08-10T04:31:08.632Z,80.83
2022-08-10T04:33:46.081Z,81.15
2022-08-10T04:36:21.206Z,80.94
2022-08-10T04:38:54.260Z,80.86
2022-08-10T04:41:27.183Z,81.17
2022-08-10T04:43:59.377Z,80.64
2022-08-10T04:46:42.743Z,80.46
2022-08-10T04:49:54.217Z,80.27
2022-08-10T04:52:15.380Z,80.21
2022-08-10T04:54:47.384Z,79.14
2022-08-10T04:57:19.354Z,79.35
2022-08-10T04:59:51.291Z,78.76
2022-08-10T05:02:30.358Z,78.70
2022-08-10T05:05:04.662Z,78.94
2022-08-10T05:07:53.896Z,79.09
2022-08-10T05:10:28.794Z,79.11
2022-08-10T05:13:00.727Z,78.61
2022-08-10T05:15:32.720Z,78.74
2022-08-10T05:18:09.813Z,78.21
2022-08-10T05:20:47.193Z,78.33
2022-08-10T05:23:21.795Z,77.85
2022-08-10T05:25:53.763Z,77.53
2022-08-10T05:28:27.687Z,77.49
2022-08-10T05:31:02.789Z,77.04
2022-08-10T05:33:34.754Z,76.87
2022-08-10T05:36:07.413Z,76.87
2022-08-10T05:38:39.969Z,76.45
2022-08-10T05:41:12.146Z,76.76
2022-08-10T05:43:44.848Z,76.35
2022-08-10T05:46:21.103Z,76.21
2022-08-10T05:48:58.880Z,75.71
2022-08-10T05:51:32.117Z,75.34
2022-08-10T05:54:09.112Z,75.68
2022-08-10T05:56:54.908Z,74.91
2022-08-10T06:00:35.542Z,75.04
2022-08-10T06:02:35.768Z,74.83
2022-08-10T06:05:26.519Z,74.77
2022-08-10T06:08:05.026Z,74.01
2022-08-10T06:10:54.906Z,74.04
2022-08-10T06:14:13.388Z,73.27
2022-08-10T06:16:46.057Z,73.04
2022-08-10T06:19:19.146Z,72.46
2022-08-10T06:22:01.155Z,72.02
2022-08-10T06:25:04.682Z,71.82
2022-08-10T06:27:34.754Z,72.00
2022-08-10T06:30:20.103Z,71.98
2022-08-10T06:32:56.709Z,71.45
2022-08-10T06:35:32.557Z,70.14
2022-08-10T06:38:06.295Z,70.55
2022-08-10T06:40:47.374Z,70.10
2022-08-10T06:43:21.504Z,69.71
2022-08-10T06:46:07.488Z,69.38
2022-08-10T06:48:51.792Z,68.79
2022-08-10T06:51:30.090Z,69.54
2022-08-10T06:54:06.664Z,68.97
2022-08-10T06:57:01.695Z,68.83
2022-08-10T06:59:46.305Z,68.24
2022-08-10T07:02:30.168Z,68.45
2022-08-10T07:05:06.641Z,67.72
2022-08-10T07:07:41.216Z,67.58
2022-08-10T07:10:17.940Z,67.30
2022-08-10T07:12:54.960Z,66.13
2022-08-10T07:15:59.144Z,66.23
2022-08-10T07:18:20.920Z,65.21
2022-08-10T07:20:53.798Z,64.82
2022-08-10T07:23:58.843Z,63.47
2022-08-10T07:26:20.629Z,61.89
2022-08-10T07:28:53.411Z,62.38
2022-08-10T07:31:54.338Z,61.54
2022-08-10T07:34:29.188Z,60.29
2022-08-10T07:37:06.511Z,60.39
2022-08-10T07:40:02.103Z,59.57
2022-08-10T07:42:42.093Z,58.61
2022-08-10T07:45:17.410Z,57.97
2022-08-10T07:48:03.710Z,57.92
2022-08-10T07:50:41.327Z,56.31
2022-08-10T07:53:24.848Z,56.22
2022-08-10T07:56:07.607Z,54.83
2022-08-10T07:58:51.753Z,53.97
2022-08-10T08:01:29.594Z,52.80
2022-08-10T08:04:11.044Z,48.59
2022-08-10T08:06:45.914Z,43.67
2022-08-10T08:09:20.719Z,39.76
2022-08-10T08:11:54.723Z,37.02
2022-08-10T08:14:27.709Z,35.22
2022-08-10T08:17:02.626Z,33.04
2022-08-10T08:19:45.759Z,31.06
2022-08-10T08:24:06.194Z,30.62
2022-08-10T08:25:14.641Z,29.91
2022-08-10T08:27:52.781Z,28.63
2022-08-10T08:30:27.771Z,29.04
2022-08-10T08:33:01.262Z,28.48
2022-08-10T08:35:34.568Z,29.34
2022-08-10T08:38:33.407Z,29.33
2022-08-10T08:41:15.355Z,28.72
2022-08-10T08:44:17.414Z,29.52
2022-08-10T08:48:01.000Z,28.83
2022-08-10T08:50:23.884Z,27.16
2022-08-10T08:54:01.218Z,26.64
2022-08-10T08:56:50.112Z,25.60
2022-08-10T08:59:59.717Z,26.14
2022-08-10T09:03:09.178Z,25.46
2022-08-10T09:05:58.651Z,25.68
2022-08-10T09:08:53.895Z,26.31
2022-08-10T09:12:02.770Z,26.90
2022-08-10T09:14:42.003Z,27.89
2022-08-10T09:17:46.156Z,28.07
2022-08-10T09:20:37.544Z,27.39
2022-08-10T09:24:04.759Z,28.00
2022-08-10T09:26:51.774Z,28.01
2022-08-10T09:29:31.283Z,27.97
2022-08-10T09:36:13.815Z,28.32
2022-08-10T09:36:28.042Z,27.75
2022-08-10T09:38:38.117Z,27.87
2022-08-10T09:41:40.064Z,28.56
2022-08-10T09:44:58.045Z,29.17
2022-08-10T09:48:02.455Z,27.91
2022-08-10T09:54:35.474Z,29.54
2022-08-10T09:57:48.341Z,29.80
2022-08-10T10:00:23.950Z,29.53
2022-08-10T10:03:17.765Z,29.46
2022-08-10T10:06:19.093Z,28.64
2022-08-10T10:09:35.136Z,28.70
2022-08-10T10:12:37.200Z,28.23
2022-08-10T10:15:24.139Z,28.62
2022-08-10T10:18:03.432Z,26.93
2022-08-10T10:21:00.074Z,27.91
2022-08-10T10:24:15.565Z,26.81
2022-08-10T10:27:02.592Z,26.30
2022-08-10T10:29:57.242Z,26.50
2022-08-10T10:32:57.691Z,26.45
2022-08-10T10:35:44.577Z,26.80
2022-08-10T10:38:19.061Z,26.48
2022-08-10T10:42:03.729Z,25.50
2022-08-10T10:44:50.345Z,27.12
2022-08-10T10:47:46.741Z,25.54
2022-08-10T10:50:31.598Z,26.56
2022-08-10T10:53:19.169Z,26.42
2022-08-10T10:56:43.723Z,24.54
2022-08-10T10:59:57.774Z,23.01
2022-08-10T11:03:01.637Z,23.13
2022-08-10T11:05:43.437Z,21.65
2022-08-10T11:08:30.738Z,21.59
2022-08-10T11:11:25.355Z,22.38
2022-08-10T11:14:24.650Z,20.97
2022-08-10T11:17:12.055Z,20.35
2022-08-10T11:20:26.321Z,19.31
2022-08-10T11:23:31.855Z,18.10
2022-08-10T11:26:25.211Z,17.35
2022-08-10T11:29:43.913Z,17.35
2022-08-10T11:32:37.706Z,16.57
2022-08-10T11:35:34.822Z,16.26
2022-08-10T11:39:11.098Z,14.99
2022-08-10T11:42:09.072Z,14.08
2022-08-10T11:45:00.454Z,14.07
2022-08-10T11:47:41.472Z,13.14
2022-08-10T11:50:37.054Z,14.38
2022-08-10T11:53:24.696Z,14.73
2022-08-10T11:55:59.860Z,14.70
2022-08-10T11:59:00.443Z,14.41
2022-08-10T12:01:34.247Z,12.91
2022-08-10T12:04:11.890Z,14.15
2022-08-10T12:06:55.691Z,14.83
2022-08-10T12:10:09.738Z,12.90
2022-08-10T12:12:23.686Z,13.68
2022-08-10T12:15:15.717Z,13.96
2022-08-10T12:17:54.805Z,13.13
2022-08-10T12:20:35.095Z,12.38
2022-08-10T12:23:24.474Z,12.65
2022-08-10T12:26:21.150Z,12.22
2022-08-10T12:29:15.246Z,13.00
2022-08-10T12:32:27.688Z,11.80
2022-08-10T12:35:26.079Z,11.06
2022-08-10T12:38:35.064Z,12.44
2022-08-10T12:41:43.522Z,12.27
2022-08-10T12:44:43.311Z,12.88
2022-08-10T12:47:50.556Z,12.06
2022-08-10T12:50:59.834Z,11.83
2022-08-10T12:53:56.723Z,11.06
2022-08-10T12:56:36.844Z,12.23
2022-08-10T12:59:14.040Z,12.65
2022-08-10T13:02:09.557Z,12.47
2022-08-10T13:04:44.304Z,12.19
2022-08-10T13:08:03.837Z,12.09
2022-08-10T13:10:25.351Z,13.03
2022-08-10T13:12:59.548Z,12.78
2022-08-10T13:15:49.398Z,13.29
2022-08-10T13:18:29.841Z,13.30
2022-08-10T13:21:20.598Z,13.37
2022-08-10T13:24:15.135Z,14.32
2022-08-10T13:27:26.243Z,14.81
2022-08-10T13:30:06.968Z,14.28
2022-08-10T13:32:51.116Z,16.15
2022-08-10T13:35:25.828Z,15.59
2022-08-10T13:37:59.409Z,16.22
2022-08-10T13:40:33.402Z,17.23
2022-08-10T13:43:08.325Z,18.00
2022-08-10T13:45:46.410Z,18.08
2022-08-10T13:48:24.205Z,18.09
2022-08-10T13:50:59.307Z,17.89
2022-08-10T13:53:33.421Z,18.77
2022-08-10T13:56:10.887Z,18.41
2022-08-10T13:58:43.536Z,18.57
2022-08-10T14:01:22.759Z,18.73
2022-08-10T14:03:55.908Z,19.47
2022-08-10T14:06:30.084Z,19.35
2022-08-10T14:09:10.332Z,19.65
2022-08-10T14:11:44.055Z,18.97
2022-08-10T14:14:18.912Z,18.80
2022-08-10T14:16:51.905Z,18.54
2022-08-10T14:19:28.860Z,19.67
2022-08-10T14:22:01.993Z,18.93
2022-08-10T14:24:34.328Z,18.69
2022-08-10T14:27:10.522Z,19.30
2022-08-10T14:30:10.000Z,19.99
2022-08-10T14:32:44.626Z,20.57
2022-08-10T14:36:20.991Z,20.60
2022-08-10T14:38:19.703Z,21.88
2022-08-10T14:40:55.426Z,21.59
2022-08-10T14:43:40.847Z,21.98
2022-08-10T14:46:20.251Z,21.79
2022-08-10T14:48:55.891Z,21.73
2022-08-10T14:51:44.422Z,22.02
2022-08-10T14:54:18.037Z,22.26
2022-08-10T14:56:50.958Z,22.46
2022-08-10T14:59:45.883Z,22.60
2022-08-10T15:02:40.086Z,22.16
2022-08-10T15:05:17.502Z,22.20
2022-08-10T15:07:58.763Z,23.08
2022-08-10T15:10:32.427Z,22.99
2022-08-10T15:13:34.246Z,22.79
2022-08-10T15:16:13.898Z,24.31
2022-08-10T15:18:58.593Z,22.78
2022-08-10T15:21:43.505Z,24.96
2022-08-10T15:24:38.286Z,24.94
2022-08-10T15:27:11.365Z,24.08
2022-08-10T15:29:44.797Z,23.84
2022-08-10T15:34:01.932Z,24.91
2022-08-10T15:36:39.498Z,24.44
2022-08-10T15:40:24.116Z,24.27
2022-08-10T15:42:20.816Z,24.67
2022-08-10T15:44:55.007Z,23.93
2022-08-10T15:47:45.877Z,25.02
2022-08-10T15:50:40.192Z,26.23
2022-08-10T15:53:49.412Z,25.91
2022-08-10T15:56:34.940Z,26.64
2022-08-10T15:59:15.532Z,26.46
2022-08-10T16:02:14.048Z,26.38
2022-08-10T16:05:11.908Z,27.51
2022-08-10T16:08:00.529Z,28.09
2022-08-10T16:10:53.585Z,28.20
2022-08-10T16:13:50.554Z,27.56
2022-08-10T16:16:31.547Z,27.68
2022-08-10T16:19:22.423Z,27.95
2022-08-10T16:22:02.217Z,28.22
2022-08-10T16:24:38.080Z,28.48
2022-08-10T16:27:11.126Z,28.35
2022-08-10T16:29:56.084Z,28.39
2022-08-10T16:32:32.165Z,28.72
2022-08-10T16:35:09.137Z,28.32
2022-08-10T16:37:56.647Z,29.07
2022-08-10T16:40:32.955Z,29.50
2022-08-10T16:43:09.228Z,28.84
2022-08-10T16:45:48.106Z,29.19
2022-08-10T16:48:48.446Z,29.12
2022-08-10T16:51:22.770Z,29.42
2022-08-10T16:53:59.177Z,28.82
2022-08-10T16:56:48.623Z,29.52
2022-08-10T16:59:24.442Z,28.86
2022-08-10T17:01:58.917Z,29.17
2022-08-10T17:04:34.365Z,28.41
2022-08-10T17:07:14.415Z,28.89
2022-08-10T17:09:50.948Z,28.80
2022-08-10T17:12:30.351Z,27.85
2022-08-10T17:15:10.278Z,28.13
2022-08-10T17:17:49.115Z,28.22
2022-08-10T17:20:32.976Z,28.77
2022-08-10T17:23:10.664Z,28.51
2022-08-10T17:25:46.063Z,29.24
2022-08-10T17:28:34.914Z,28.63
2022-08-10T17:31:23.835Z,29.01
2022-08-10T17:34:12.369Z,28.74
2022-08-10T17:36:49.952Z,29.08
2022-08-10T17:39:29.147Z,29.11
2022-08-10T17:42:04.484Z,28.93
2022-08-10T17:44:39.113Z,28.87
2022-08-10T17:47:12.505Z,28.86
2022-08-10T17:49:45.716Z,29.02
2022-08-10T17:52:23.968Z,29.28
2022-08-10T17:55:01.736Z,29.29
2022-08-10T17:57:39.491Z,29.86
2022-08-10T18:00:14.586Z,29.85
2022-08-10T18:02:49.378Z,30.21
2022-08-10T18:05:21.605Z,30.70
2022-08-10T18:07:56.355Z,30.66
2022-08-10T18:10:29.160Z,30.80
2022-08-10T18:13:01.906Z,31.16
2022-08-10T18:15:38.165Z,30.99
2022-08-10T18:18:17.347Z,31.51
2022-08-10T18:21:02.365Z,31.56
2022-08-10T18:23:38.469Z,31.21
2022-08-10T18:26:15.230Z,31.00
2022-08-10T18:28:53.214Z,31.27
2022-08-10T18:31:26.425Z,32.38
2022-08-10T18:33:59.455Z,32.32
2022-08-10T18:36:38.821Z,32.22
2022-08-10T18:39:13.294Z,32.56
2022-08-10T18:42:00.720Z,32.54
2022-08-10T18:44:55.454Z,32.55
2022-08-10T18:47:39.918Z,32.58
2022-08-10T18:50:49.698Z,33.29
2022-08-10T18:53:48.605Z,33.39
2022-08-10T18:56:40.547Z,33.41
2022-08-10T19:00:03.881Z,33.57
2022-08-10T19:03:53.503Z,34.19
2022-08-10T19:07:02.040Z,34.47
2022-08-10T19:09:48.321Z,34.88
2022-08-10T19:12:50.461Z,34.99
2022-08-10T19:15:42.649Z,35.36
2022-08-10T19:18:34.449Z,35.68
2022-08-10T19:21:33.174Z,35.55
2022-08-10T19:24:15.199Z,36.00
2022-08-10T19:26:59.596Z,35.80
2022-08-10T19:30:11.027Z,36.53
2022-08-10T19:33:10.099Z,37.04
2022-08-10T19:36:04.395Z,36.57
2022-08-10T19:38:50.634Z,36.78
2022-08-10T19:41:44.408Z,36.76
2022-08-10T19:44:31.272Z,37.60
2022-08-10T19:47:12.629Z,37.49
2022-08-10T19:50:04.557Z,37.82
2022-08-10T19:53:02.215Z,38.10
2022-08-10T19:56:18.469Z,38.08
2022-08-10T19:59:13.040Z,38.02
2022-08-10T20:01:55.177Z,38.54
2022-08-10T20:04:34.079Z,38.63
2022-08-10T20:07:51.475Z,39.12
2022-08-10T20:10:54.784Z,38.72
2022-08-10T20:13:41.997Z,39.29
2022-08-10T20:16:22.365Z,38.89
2022-08-10T20:19:10.655Z,39.21
2022-08-10T20:21:53.071Z,39.29
2022-08-10T20:24:49.638Z,39.82
2022-08-10T20:27:58.889Z,39.80
2022-08-10T20:30:31.736Z,40.16
2022-08-10T20:33:12.413Z,40.44
2022-08-10T20:35:49.351Z,40.53
2022-08-10T20:38:32.872Z,40.80
2022-08-10T20:41:46.545Z,41.15
2022-08-10T20:45:11.482Z,42.28
2022-08-10T20:48:22.365Z,43.46
2022-08-10T20:50:59.449Z,44.48
2022-08-10T20:53:45.428Z,45.69
2022-08-10T20:56:25.215Z,46.22
2022-08-10T21:00:04.527Z,46.90
2022-08-10T21:03:25.150Z,47.91
2022-08-10T21:06:52.996Z,48.38
2022-08-10T21:09:58.874Z,50.11
2022-08-10T21:13:06.543Z,50.91
2022-08-10T21:16:49.734Z,51.93
2022-08-10T21:19:53.638Z,52.63
2022-08-10T21:22:47.751Z,54.22
2022-08-10T21:25:35.884Z,54.88
2022-08-10T21:28:35.453Z,56.18
2022-08-10T21:31:30.957Z,57.55
2022-08-10T21:34:54.269Z,58.00
2022-08-10T21:37:57.141Z,58.48
2022-08-10T21:41:18.373Z,59.05
2022-08-10T21:44:20.670Z,59.44
2022-08-10T21:48:16.647Z,60.63
2022-08-10T21:52:01.519Z,61.23
2022-08-10T21:55:11.918Z,62.72
2022-08-10T21:58:30.601Z,63.71
2022-08-10T22:01:39.329Z,63.74
2022-08-10T22:04:32.106Z,64.44
2022-08-10T22:07:24.437Z,65.62
2022-08-10T22:10:17.552Z,65.37
2022-08-10T22:13:11.249Z,65.68
2022-08-10T22:16:14.006Z,66.00
2022-08-10T22:19:14.803Z,66.06
2022-08-10T22:22:27.003Z,66.50
2022-08-10T22:25:36.597Z,66.83
2022-08-10T22:28:33.787Z,67.42
2022-08-10T22:31:36.615Z,67.84
2022-08-10T22:34:52.977Z,68.28
2022-08-10T22:38:11.737Z,68.29
2022-08-10T22:41:04.976Z,68.88
2022-08-10T22:43:56.962Z,69.17
2022-08-10T22:46:51.355Z,69.85
2022-08-10T22:49:24.407Z,69.81
2022-08-10T22:52:08.838Z,69.86
2022-08-10T22:55:32.048Z,69.87
2022-08-10T22:58:22.941Z,70.38
2022-08-10T23:01:42.151Z,70.21
2022-08-10T23:04:36.231Z,70.61
2022-08-10T23:07:17.651Z,70.54
2022-08-10T23:10:09.460Z,69.92
2022-08-10T23:12:48.113Z,70.09
2022-08-10T23:15:54.374Z,69.89
2022-08-10T23:18:56.956Z,69.46
2022-08-10T23:22:02.851Z,69.60
2022-08-10T23:24:43.595Z,69.80
2022-08-10T23:27:38.999Z,69.90
2022-08-10T23:30:17.065Z,70.04
2022-08-10T23:32:59.375Z,70.14
2022-08-10T23:36:30.534Z,70.86
2022-08-10T23:38:53.303Z,69.99
2022-08-10T23:41:31.733Z,70.37
2022-08-10T23:44:04.785Z,70.12
2022-08-10T23:46:41.810Z,69.65
2022-08-10T23:49:14.445Z,69.33
2022-08-10T23:51:56.287Z,69.04
2022-08-10T23:54:30.014Z,69.02
2022-08-10T23:57:02.938Z,68.81
2022-08-10T23:59:35.812Z,68.23
